sensor_id;sensor_type;location;lat;lon;timestamp;pressure;altitude;pressure_sealevel;temperature;humidity
68871;BME280;55906;52.278;6.808;2023-11-19T00:01:57;100681.25;;;11.81;100.00
68871;BME280;55906;52.278;6.808;2023-11-19T00:04:23;100672.50;;;11.83;100.00
68871;BME280;55906;52.278;6.808;2023-11-19T00:06:50;100667.31;;;11.88;100.00
68871;BME280;55906;52.278;6.808;2023-11-19T00:09:18;100667.28;;;11.87;100.00
68871;BME280;55906;52.278;6.808;2023-11-19T00:11:45;100662.88;;;11.85;100.00
68871;BME280;55906;52.278;6.808;2023-11-19T00:14:12;100659.44;;;11.91;100.00
68871;BME280;55906;52.278;6.808;2023-11-19T00:16:39;100660.41;;;11.96;100.00
68871;BME280;55906;52.278;6.808;2023-11-19T00:19:05;100648.16;;;11.98;100.00
68871;BME280;55906;52.278;6.808;2023-11-19T00:21:33;100645.56;;;12.01;100.00
68871;BME280;55906;52.278;6.808;2023-11-19T00:24:00;100637.75;;;12.07;100.00
68871;BME280;55906;52.278;6.808;2023-11-19T00:26:28;100634.28;;;12.11;100.00
68871;BME280;55906;52.278;6.808;2023-11-19T00:28:55;100636.06;;;12.12;100.00
68871;BME280;55906;52.278;6.808;2023-11-19T00:31:23;100641.38;;;12.15;100.00
68871;BME280;55906;52.278;6.808;2023-11-19T00:33:49;100640.56;;;12.20;100.00
68871;BME280;55906;52.278;6.808;2023-11-19T00:36:16;100630.09;;;12.24;100.00
68871;BME280;55906;52.278;6.808;2023-11-19T00:38:43;100633.63;;;12.26;100.00
68871;BME280;55906;52.278;6.808;2023-11-19T00:41:09;100639.81;;;12.28;100.00
68871;BME280;55906;52.278;6.808;2023-11-19T00:43:38;100637.28;;;12.34;100.00
68871;BME280;55906;52.278;6.808;2023-11-19T00:46:07;100649.66;;;12.38;100.00
68871;BME280;55906;52.278;6.808;2023-11-19T00:48:33;100645.25;;;12.39;100.00
68871;BME280;55906;52.278;6.808;2023-11-19T00:51:00;100636.53;;;12.43;100.00
68871;BME280;55906;52.278;6.808;2023-11-19T00:53:28;100632.19;;;12.46;100.00
68871;BME280;55906;52.278;6.808;2023-11-19T00:55:54;100612.84;;;12.47;100.00
68871;BME280;55906;52.278;6.808;2023-11-19T00:58:21;100611.16;;;12.53;100.00
68871;BME280;55906;52.278;6.808;2023-11-19T01:00:49;100607.72;;;12.60;100.00
68871;BME280;55906;52.278;6.808;2023-11-19T01:03:16;100594.53;;;12.58;100.00
68871;BME280;55906;52.278;6.808;2023-11-19T01:05:43;100584.88;;;12.62;100.00
68871;BME280;55906;52.278;6.808;2023-11-19T01:08:12;100585.78;;;12.62;100.00
68871;BME280;55906;52.278;6.808;2023-11-19T01:10:38;100591.97;;;12.64;100.00
68871;BME280;55906;52.278;6.808;2023-11-19T01:13:05;100592.00;;;12.67;100.00
68871;BME280;55906;52.278;6.808;2023-11-19T01:15:32;100582.31;;;12.66;100.00
68871;BME280;55906;52.278;6.808;2023-11-19T01:18:00;100573.59;;;12.73;100.00
68871;BME280;55906;52.278;6.808;2023-11-19T01:20:27;100566.59;;;12.75;100.00
68871;BME280;55906;52.278;6.808;2023-11-19T01:22:54;100557.75;;;12.73;100.00
68871;BME280;55906;52.278;6.808;2023-11-19T01:25:21;100563.16;;;12.82;100.00
68871;BME280;55906;52.278;6.808;2023-11-19T01:27:48;100557.84;;;12.79;100.00
68871;BME280;55906;52.278;6.808;2023-11-19T01:30:15;100559.59;;;12.80;100.00
68871;BME280;55906;52.278;6.808;2023-11-19T01:32:42;100556.03;;;12.77;100.00
68871;BME280;55906;52.278;6.808;2023-11-19T01:35:10;100578.16;;;12.87;100.00
68871;BME280;55906;52.278;6.808;2023-11-19T01:37:37;100580.84;;;12.90;100.00
68871;BME280;55906;52.278;6.808;2023-11-19T01:40:04;100565.88;;;12.90;100.00
68871;BME280;55906;52.278;6.808;2023-11-19T01:42:36;100583.50;;;12.93;100.00
68871;BME280;55906;52.278;6.808;2023-11-19T01:45:04;100575.59;;;12.93;100.00
68871;BME280;55906;52.278;6.808;2023-11-19T01:47:33;100570.34;;;12.97;100.00
68871;BME280;55906;52.278;6.808;2023-11-19T01:50:02;100572.16;;;13.00;100.00
68871;BME280;55906;52.278;6.808;2023-11-19T01:52:34;100562.53;;;13.02;100.00
68871;BME280;55906;52.278;6.808;2023-11-19T01:55:03;100564.28;;;13.01;100.00
68871;BME280;55906;52.278;6.808;2023-11-19T01:57:30;100566.06;;;13.04;100.00
68871;BME280;55906;52.278;6.808;2023-11-19T01:59:57;100574.03;;;13.07;100.00
68871;BME280;55906;52.278;6.808;2023-11-19T02:02:25;100567.00;;;13.09;100.00
68871;BME280;55906;52.278;6.808;2023-11-19T02:04:52;100570.53;;;13.11;100.00
68871;BME280;55906;52.278;6.808;2023-11-19T02:07:19;100560.84;;;13.11;100.00
68871;BME280;55906;52.278;6.808;2023-11-19T02:09:47;100555.56;;;13.11;100.00
68871;BME280;55906;52.278;6.808;2023-11-19T02:12:14;100555.56;;;13.11;100.00
68871;BME280;55906;52.278;6.808;2023-11-19T02:14:41;100548.53;;;13.12;100.00
68871;BME280;55906;52.278;6.808;2023-11-19T02:17:25;100538.97;;;13.19;100.00
68871;BME280;55906;52.278;6.808;2023-11-19T02:19:51;100536.31;;;13.19;100.00
68871;BME280;55906;52.278;6.808;2023-11-19T02:22:18;100539.88;;;13.22;100.00
68871;BME280;55906;52.278;6.808;2023-11-19T02:24:49;100539.88;;;13.22;100.00
68871;BME280;55906;52.278;6.808;2023-11-19T02:27:20;100537.22;;;13.22;100.00
68871;BME280;55906;52.278;6.808;2023-11-19T02:29:51;100531.97;;;13.25;100.00
68871;BME280;55906;52.278;6.808;2023-11-19T02:32:19;100526.69;;;13.24;100.00
68871;BME280;55906;52.278;6.808;2023-11-19T02:34:45;100522.28;;;13.26;100.00
68871;BME280;55906;52.278;6.808;2023-11-19T02:37:12;100539.00;;;13.23;100.00
68871;BME280;55906;52.278;6.808;2023-11-19T02:39:40;100532.91;;;13.32;100.00
68871;BME280;55906;52.278;6.808;2023-11-19T02:42:07;100535.56;;;13.32;100.00
68871;BME280;55906;52.278;6.808;2023-11-19T02:44:35;100536.47;;;13.35;100.00
68871;BME280;55906;52.278;6.808;2023-11-19T02:47:05;100532.94;;;13.35;100.00
68871;BME280;55906;52.278;6.808;2023-11-19T02:49:33;100540.84;;;13.32;100.00
68871;BME280;55906;52.278;6.808;2023-11-19T02:52:00;100534.66;;;13.30;100.00
68871;BME280;55906;52.278;6.808;2023-11-19T02:54:26;100532.06;;;13.36;100.00
68871;BME280;55906;52.278;6.808;2023-11-19T02:56:53;100530.28;;;13.33;100.00
68871;BME280;55906;52.278;6.808;2023-11-19T02:59:25;100539.09;;;13.32;100.00
68871;BME280;55906;52.278;6.808;2023-11-19T03:01:53;100549.66;;;13.32;100.00
68871;BME280;55906;52.278;6.808;2023-11-19T03:04:21;100539.09;;;13.32;100.00
68871;BME280;55906;52.278;6.808;2023-11-19T03:06:48;100552.31;;;13.34;100.00
68871;BME280;55906;52.278;6.808;2023-11-19T03:09:15;100543.47;;;13.32;100.00
68871;BME280;55906;52.278;6.808;2023-11-19T03:11:42;100540.81;;;13.30;100.00
68871;BME280;55906;52.278;6.808;2023-11-19T03:14:09;100540.84;;;13.33;100.00
68871;BME280;55906;52.278;6.808;2023-11-19T03:16:35;100539.97;;;13.34;100.00
68871;BME280;55906;52.278;6.808;2023-11-19T03:19:02;100542.63;;;13.33;100.00
68871;BME280;55906;52.278;6.808;2023-11-19T03:21:31;100547.03;;;13.35;100.00
68871;BME280;55906;52.278;6.808;2023-11-19T03:23:58;100543.50;;;13.35;100.00
68871;BME280;55906;52.278;6.808;2023-11-19T03:26:26;100543.50;;;13.33;100.00
68871;BME280;55906;52.278;6.808;2023-11-19T03:28:52;100543.50;;;13.33;100.00
68871;BME280;55906;52.278;6.808;2023-11-19T03:31:19;100544.38;;;13.34;100.00
68871;BME280;55906;52.278;6.808;2023-11-19T03:33:46;100535.50;;;13.27;100.00
68871;BME280;55906;52.278;6.808;2023-11-19T03:36:13;100548.72;;;13.27;100.00
68871;BME280;55906;52.278;6.808;2023-11-19T03:38:41;100535.50;;;13.27;100.00
68871;BME280;55906;52.278;6.808;2023-11-19T03:41:11;100541.66;;;13.26;100.00
68871;BME280;55906;52.278;6.808;2023-11-19T03:43:37;100537.22;;;13.22;100.00
68871;BME280;55906;52.278;6.808;2023-11-19T03:46:04;100541.53;;;13.16;100.00
68871;BME280;55906;52.278;6.808;2023-11-19T03:48:31;100542.41;;;13.16;100.00
68871;BME280;55906;52.278;6.808;2023-11-19T03:50:58;100541.63;;;13.22;100.00
68871;BME280;55906;52.278;6.808;2023-11-19T03:53:25;100541.59;;;13.19;100.00
68871;BME280;55906;52.278;6.808;2023-11-19T03:55:53;100555.59;;;13.14;100.00
68871;BME280;55906;52.278;6.808;2023-11-19T03:58:18;100552.09;;;13.14;100.00
68871;BME280;55906;52.278;6.808;2023-11-19T04:00:45;100554.75;;;13.16;100.00
68871;BME280;55906;52.278;6.808;2023-11-19T04:03:12;100550.31;;;13.14;100.00
68871;BME280;55906;52.278;6.808;2023-11-19T04:05:38;100541.50;;;13.11;100.00
68871;BME280;55906;52.278;6.808;2023-11-19T04:08:05;100543.25;;;13.12;100.00
68871;BME280;55906;52.278;6.808;2023-11-19T04:10:32;100538.88;;;13.14;100.00
68871;BME280;55906;52.278;6.808;2023-11-19T04:13:00;100545.03;;;13.14;100.00
68871;BME280;55906;52.278;6.808;2023-11-19T04:15:26;100538.88;;;13.16;100.00
68871;BME280;55906;52.278;6.808;2023-11-19T04:17:53;100538.00;;;13.13;100.00
68871;BME280;55906;52.278;6.808;2023-11-19T04:20:20;100535.28;;;13.07;100.00
68871;BME280;55906;52.278;6.808;2023-11-19T04:22:47;100523.84;;;13.07;100.00
68871;BME280;55906;52.278;6.808;2023-11-19T04:25:13;100526.47;;;13.07;100.00
68871;BME280;55906;52.278;6.808;2023-11-19T04:27:41;100526.41;;;13.01;100.00
68871;BME280;55906;52.278;6.808;2023-11-19T04:30:10;100524.59;;;12.97;100.00
68871;BME280;55906;52.278;6.808;2023-11-19T04:32:37;100528.03;;;12.90;100.00
68871;BME280;55906;52.278;6.808;2023-11-19T04:35:04;100519.19;;;12.86;100.00
68871;BME280;55906;52.278;6.808;2023-11-19T04:37:32;100540.25;;;12.81;100.00
68871;BME280;55906;52.278;6.808;2023-11-19T04:39:58;100533.16;;;12.76;100.00
68871;BME280;55906;52.278;6.808;2023-11-19T04:42:25;100539.31;;;12.75;100.00
68871;BME280;55906;52.278;6.808;2023-11-19T04:44:52;100544.50;;;12.69;100.00
68871;BME280;55906;52.278;6.808;2023-11-19T04:47:21;100543.63;;;12.68;100.00
68871;BME280;55906;52.278;6.808;2023-11-19T04:49:47;100539.19;;;12.66;100.00
68871;BME280;55906;52.278;6.808;2023-11-19T04:52:14;100547.06;;;12.61;100.00
68871;BME280;55906;52.278;6.808;2023-11-19T04:54:41;100568.16;;;12.61;100.00
68871;BME280;55906;52.278;6.808;2023-11-19T04:57:08;100553.13;;;12.54;100.00
68871;BME280;55906;52.278;6.808;2023-11-19T04:59:36;100567.16;;;12.50;100.00
68871;BME280;55906;52.278;6.808;2023-11-19T05:02:03;100569.75;;;12.47;100.00
68871;BME280;55906;52.278;6.808;2023-11-19T05:04:31;100563.59;;;12.46;100.00
68871;BME280;55906;52.278;6.808;2023-11-19T05:06:58;100567.97;;;12.46;100.00
68871;BME280;55906;52.278;6.808;2023-11-19T05:09:25;100560.06;;;12.47;100.00
68871;BME280;55906;52.278;6.808;2023-11-19T05:11:52;100561.88;;;12.50;100.00
68871;BME280;55906;52.278;6.808;2023-11-19T05:14:19;100561.91;;;12.53;99.63
68871;BME280;55906;52.278;6.808;2023-11-19T05:16:47;100573.38;;;12.55;99.57
68871;BME280;55906;52.278;6.808;2023-11-19T05:19:13;100561.03;;;12.54;99.32
68871;BME280;55906;52.278;6.808;2023-11-19T05:21:43;100558.38;;;12.53;98.95
68871;BME280;55906;52.278;6.808;2023-11-19T05:24:09;100556.66;;;12.55;98.93
68871;BME280;55906;52.278;6.808;2023-11-19T05:26:37;100562.81;;;12.55;98.52
68871;BME280;55906;52.278;6.808;2023-11-19T05:29:04;100557.53;;;12.55;97.51
68871;BME280;55906;52.278;6.808;2023-11-19T05:31:31;100563.72;;;12.57;97.31
68871;BME280;55906;52.278;6.808;2023-11-19T05:33:57;100573.38;;;12.55;97.22
68871;BME280;55906;52.278;6.808;2023-11-19T05:36:24;100572.50;;;12.56;96.72
68871;BME280;55906;52.278;6.808;2023-11-19T05:38:52;100575.16;;;12.58;96.49
68871;BME280;55906;52.278;6.808;2023-11-19T05:41:19;100563.69;;;12.54;96.66
68871;BME280;55906;52.278;6.808;2023-11-19T05:43:45;100572.53;;;12.58;96.68
68871;BME280;55906;52.278;6.808;2023-11-19T05:46:12;100565.50;;;12.60;96.45
68871;BME280;55906;52.278;6.808;2023-11-19T05:48:39;100560.19;;;12.57;96.24
68871;BME280;55906;52.278;6.808;2023-11-19T05:51:06;100573.38;;;12.55;96.19
68871;BME280;55906;52.278;6.808;2023-11-19T05:53:33;100570.75;;;12.57;96.06
68871;BME280;55906;52.278;6.808;2023-11-19T05:56:01;100577.78;;;12.56;96.07
68871;BME280;55906;52.278;6.808;2023-11-19T05:58:29;100565.44;;;12.55;95.83
68871;BME280;55906;52.278;6.808;2023-11-19T06:00:58;100578.63;;;12.54;96.17
68871;BME280;55906;52.278;6.808;2023-11-19T06:03:26;100581.31;;;12.58;95.33
68871;BME280;55906;52.278;6.808;2023-11-19T06:05:53;100583.94;;;12.57;94.98
68871;BME280;55906;52.278;6.808;2023-11-19T06:08:20;100580.41;;;12.56;94.73
68871;BME280;55906;52.278;6.808;2023-11-19T06:10:47;100584.88;;;12.60;94.20
68871;BME280;55906;52.278;6.808;2023-11-19T06:13:17;100594.53;;;12.58;94.26
68871;BME280;55906;52.278;6.808;2023-11-19T06:15:45;100584.78;;;12.54;94.17
68871;BME280;55906;52.278;6.808;2023-11-19T06:18:11;100588.34;;;12.58;93.92
68871;BME280;55906;52.278;6.808;2023-11-19T06:20:40;100596.28;;;12.59;93.86
68871;BME280;55906;52.278;6.808;2023-11-19T06:23:07;100601.56;;;12.58;93.65
68871;BME280;55906;52.278;6.808;2023-11-19T06:25:34;100595.38;;;12.56;93.64
68871;BME280;55906;52.278;6.808;2023-11-19T06:28:01;100587.41;;;12.53;93.93
68871;BME280;55906;52.278;6.808;2023-11-19T06:30:29;100592.69;;;12.53;93.48
68871;BME280;55906;52.278;6.808;2023-11-19T06:32:57;100586.53;;;12.52;93.31
68871;BME280;55906;52.278;6.808;2023-11-19T06:35:24;100583.88;;;12.50;93.73
68871;BME280;55906;52.278;6.808;2023-11-19T06:37:51;100597.91;;;12.48;93.33
68871;BME280;55906;52.278;6.808;2023-11-19T06:40:17;100591.78;;;12.50;93.31
68871;BME280;55906;52.278;6.808;2023-11-19T06:42:44;100589.09;;;12.46;93.34
68871;BME280;55906;52.278;6.808;2023-11-19T06:45:11;100597.84;;;12.45;93.29
68871;BME280;55906;52.278;6.808;2023-11-19T06:47:39;100600.47;;;12.43;93.63
68871;BME280;55906;52.278;6.808;2023-11-19T06:50:07;100589.00;;;12.41;93.47
68871;BME280;55906;52.278;6.808;2023-11-19T06:52:34;100588.94;;;12.37;93.19
68871;BME280;55906;52.278;6.808;2023-11-19T06:55:02;100591.63;;;12.38;93.48
68871;BME280;55906;52.278;6.808;2023-11-19T06:57:29;100600.44;;;12.40;92.89
68871;BME280;55906;52.278;6.808;2023-11-19T06:59:57;100610.09;;;12.40;92.84
68871;BME280;55906;52.278;6.808;2023-11-19T07:02:24;100616.28;;;12.42;93.12
68871;BME280;55906;52.278;6.808;2023-11-19T07:04:52;100595.19;;;12.42;92.07
68871;BME280;55906;52.278;6.808;2023-11-19T07:07:19;100595.22;;;12.45;92.05
68871;BME280;55906;52.278;6.808;2023-11-19T07:09:46;100596.09;;;12.44;92.19
68871;BME280;55906;52.278;6.808;2023-11-19T07:12:13;100605.72;;;12.40;92.17
68871;BME280;55906;52.278;6.808;2023-11-19T07:14:40;100596.88;;;12.37;92.61
68871;BME280;55906;52.278;6.808;2023-11-19T07:17:07;100603.06;;;12.40;92.32
68871;BME280;55906;52.278;6.808;2023-11-19T07:19:35;100609.09;;;12.32;92.61
68871;BME280;55906;52.278;6.808;2023-11-19T07:22:03;100611.75;;;12.32;92.24
68871;BME280;55906;52.278;6.808;2023-11-19T07:24:31;100610.00;;;12.34;91.94
68871;BME280;55906;52.278;6.808;2023-11-19T07:26:58;100602.97;;;12.33;92.33
68871;BME280;55906;52.278;6.808;2023-11-19T07:29:24;100613.56;;;12.36;91.62
68871;BME280;55906;52.278;6.808;2023-11-19T07:31:51;100614.44;;;12.36;91.22
68871;BME280;55906;52.278;6.808;2023-11-19T07:34:18;100619.84;;;12.44;90.83
68871;BME280;55906;52.278;6.808;2023-11-19T07:36:46;100609.22;;;12.41;90.98
68871;BME280;55906;52.278;6.808;2023-11-19T07:39:14;100615.47;;;12.47;90.78
68871;BME280;55906;52.278;6.808;2023-11-19T07:41:41;100629.56;;;12.48;90.60
68871;BME280;55906;52.278;6.808;2023-11-19T07:44:08;100639.25;;;12.49;90.90
68871;BME280;55906;52.278;6.808;2023-11-19T07:46:34;100635.72;;;12.48;90.87
68871;BME280;55906;52.278;6.808;2023-11-19T07:49:01;100637.47;;;12.46;91.02
68871;BME280;55906;52.278;6.808;2023-11-19T07:51:28;100645.41;;;12.48;91.34
68871;BME280;55906;52.278;6.808;2023-11-19T07:53:54;100647.25;;;12.55;90.68
68871;BME280;55906;52.278;6.808;2023-11-19T07:56:23;100646.34;;;12.53;90.50
68871;BME280;55906;52.278;6.808;2023-11-19T07:58:49;100648.13;;;12.56;90.37
68871;BME280;55906;52.278;6.808;2023-11-19T08:01:17;100643.81;;;12.61;90.78
68871;BME280;55906;52.278;6.808;2023-11-19T08:03:44;100651.78;;;12.65;89.78
68871;BME280;55906;52.278;6.808;2023-11-19T08:06:10;100664.94;;;12.62;89.63
68871;BME280;55906;52.278;6.808;2023-11-19T08:08:37;100670.19;;;12.59;90.04
68871;BME280;55906;52.278;6.808;2023-11-19T08:11:05;100655.25;;;12.61;89.86
68871;BME280;55906;52.278;6.808;2023-11-19T08:13:33;100661.50;;;12.68;89.41
68871;BME280;55906;52.278;6.808;2023-11-19T08:15:59;100654.38;;;12.61;90.00
68871;BME280;55906;52.278;6.808;2023-11-19T08:18:26;100655.31;;;12.66;89.91
68871;BME280;55906;52.278;6.808;2023-11-19T08:20:53;100657.91;;;12.61;89.71
68871;BME280;55906;52.278;6.808;2023-11-19T08:23:22;100655.28;;;12.64;89.80
68871;BME280;55906;52.278;6.808;2023-11-19T08:25:51;100658.94;;;12.72;89.34
68871;BME280;55906;52.278;6.808;2023-11-19T08:28:18;100661.56;;;12.72;89.14
68871;BME280;55906;52.278;6.808;2023-11-19T08:30:46;100654.56;;;12.74;89.62
68871;BME280;55906;52.278;6.808;2023-11-19T08:33:13;100657.25;;;12.79;89.22
68871;BME280;55906;52.278;6.808;2023-11-19T08:35:40;100659.97;;;12.83;88.79
68871;BME280;55906;52.278;6.808;2023-11-19T08:38:07;100655.56;;;12.84;88.57
68871;BME280;55906;52.278;6.808;2023-11-19T08:40:34;100671.44;;;12.87;88.26
68871;BME280;55906;52.278;6.808;2023-11-19T08:43:01;100654.84;;;12.96;88.17
68871;BME280;55906;52.278;6.808;2023-11-19T08:45:28;100654.94;;;13.02;87.25
68871;BME280;55906;52.278;6.808;2023-11-19T08:47:56;100656.88;;;13.15;86.87
68871;BME280;55906;52.278;6.808;2023-11-19T08:50:23;100645.56;;;13.24;86.55
68871;BME280;55906;52.278;6.808;2023-11-19T08:52:50;100656.09;;;13.21;85.62
68871;BME280;55906;52.278;6.808;2023-11-19T08:55:17;100652.59;;;13.23;85.38
68871;BME280;55906;52.278;6.808;2023-11-19T08:57:44;100643.81;;;13.26;84.42
68871;BME280;55906;52.278;6.808;2023-11-19T09:00:12;100644.69;;;13.25;85.23
68871;BME280;55906;52.278;6.808;2023-11-19T09:02:40;100657.97;;;13.31;84.89
68871;BME280;55906;52.278;6.808;2023-11-19T09:05:10;100645.00;;;13.54;84.36
68871;BME280;55906;52.278;6.808;2023-11-19T09:07:38;100644.28;;;13.73;83.98
68871;BME280;55906;52.278;6.808;2023-11-19T09:10:06;100646.06;;;13.74;82.75
68871;BME280;55906;52.278;6.808;2023-11-19T09:12:34;100661.00;;;13.67;83.18
68871;BME280;55906;52.278;6.808;2023-11-19T09:15:00;100637.19;;;13.66;83.06
68871;BME280;55906;52.278;6.808;2023-11-19T09:17:28;100652.13;;;13.64;82.82
68871;BME280;55906;52.278;6.808;2023-11-19T09:19:55;100647.69;;;13.58;83.48
68871;BME280;55906;52.278;6.808;2023-11-19T09:22:23;100645.88;;;13.53;83.87
68871;BME280;55906;52.278;6.808;2023-11-19T09:24:50;100662.63;;;13.55;83.67
68871;BME280;55906;52.278;6.808;2023-11-19T09:27:17;100664.34;;;13.50;83.60
68871;BME280;55906;52.278;6.808;2023-11-19T09:29:44;100654.59;;;13.45;84.16
68871;BME280;55906;52.278;6.808;2023-11-19T09:32:12;100662.50;;;13.42;84.53
68871;BME280;55906;52.278;6.808;2023-11-19T09:34:39;100664.19;;;13.36;84.83
68871;BME280;55906;52.278;6.808;2023-11-19T09:37:06;100647.47;;;13.38;85.04
68871;BME280;55906;52.278;6.808;2023-11-19T09:39:34;100658.03;;;13.38;84.96
68871;BME280;55906;52.278;6.808;2023-11-19T09:42:01;100666.81;;;13.36;85.09
68871;BME280;55906;52.278;6.808;2023-11-19T09:44:28;100666.84;;;13.39;84.82
68871;BME280;55906;52.278;6.808;2023-11-19T09:46:57;100666.81;;;13.36;85.24
68871;BME280;55906;52.278;6.808;2023-11-19T09:49:26;100665.91;;;13.32;85.24
68871;BME280;55906;52.278;6.808;2023-11-19T09:51:54;100662.34;;;13.30;85.68
68871;BME280;55906;52.278;6.808;2023-11-19T09:54:20;100654.41;;;13.27;85.95
68871;BME280;55906;52.278;6.808;2023-11-19T09:56:49;100650.81;;;13.21;86.26
68871;BME280;55906;52.278;6.808;2023-11-19T09:59:16;100665.81;;;13.23;86.16
68871;BME280;55906;52.278;6.808;2023-11-19T10:01:44;100646.41;;;13.21;86.49
68871;BME280;55906;52.278;6.808;2023-11-19T10:04:15;100642.88;;;13.21;85.90
68871;BME280;55906;52.278;6.808;2023-11-19T10:06:42;100654.34;;;13.23;86.18
68871;BME280;55906;52.278;6.808;2023-11-19T10:09:09;100656.97;;;13.20;85.87
68871;BME280;55906;52.278;6.808;2023-11-19T10:11:38;100653.44;;;13.21;85.41
68871;BME280;55906;52.278;6.808;2023-11-19T10:14:06;100664.00;;;13.19;86.05
68871;BME280;55906;52.278;6.808;2023-11-19T10:16:34;100656.97;;;13.21;85.74
68871;BME280;55906;52.278;6.808;2023-11-19T10:19:01;100648.22;;;13.25;85.45
68871;BME280;55906;52.278;6.808;2023-11-19T10:21:28;100663.22;;;13.29;84.29
68871;BME280;55906;52.278;6.808;2023-11-19T10:23:57;100652.69;;;13.32;84.35
68871;BME280;55906;52.278;6.808;2023-11-19T10:26:25;100644.00;;;13.42;84.22
68871;BME280;55906;52.278;6.808;2023-11-19T10:28:53;100647.53;;;13.44;84.31
68871;BME280;55906;52.278;6.808;2023-11-19T10:31:21;100657.28;;;13.49;83.82
68871;BME280;55906;52.278;6.808;2023-11-19T10:33:50;100653.78;;;13.53;83.71
68871;BME280;55906;52.278;6.808;2023-11-19T10:36:17;100640.53;;;13.50;83.57
68871;BME280;55906;52.278;6.808;2023-11-19T10:38:52;100639.72;;;13.54;83.51
68871;BME280;55906;52.278;6.808;2023-11-19T10:41:26;100636.22;;;13.58;82.86
68871;BME280;55906;52.278;6.808;2023-11-19T10:43:53;100643.44;;;13.74;81.95
68871;BME280;55906;52.278;6.808;2023-11-19T10:46:21;100621.44;;;13.78;81.59
68871;BME280;55906;52.278;6.808;2023-11-19T10:48:48;100632.94;;;13.83;81.94
68871;BME280;55906;52.278;6.808;2023-11-19T10:51:18;100629.44;;;13.87;81.44
68871;BME280;55906;52.278;6.808;2023-11-19T10:53:48;100632.16;;;13.95;81.37
68871;BME280;55906;52.278;6.808;2023-11-19T10:56:16;100613.88;;;14.30;80.25
68871;BME280;55906;52.278;6.808;2023-11-19T10:58:45;100627.22;;;14.39;79.40
68871;BME280;55906;52.278;6.808;2023-11-19T11:01:14;100638.69;;;14.41;79.18
68871;BME280;55906;52.278;6.808;2023-11-19T11:03:50;100621.91;;;14.37;79.00
68871;BME280;55906;52.278;6.808;2023-11-19T11:06:19;100628.03;;;14.32;78.96
68871;BME280;55906;52.278;6.808;2023-11-19T11:08:48;100627.16;;;14.31;79.65
68871;BME280;55906;52.278;6.808;2023-11-19T11:11:15;100623.56;;;14.26;79.92
68871;BME280;55906;52.278;6.808;2023-11-19T11:13:42;100625.28;;;14.21;80.22
68871;BME280;55906;52.278;6.808;2023-11-19T11:16:10;100646.34;;;14.04;79.95
68871;BME280;55906;52.278;6.808;2023-11-19T11:18:37;100621.59;;;13.99;80.37
68871;BME280;55906;52.278;6.808;2023-11-19T11:21:08;100619.78;;;13.92;80.85
68871;BME280;55906;52.278;6.808;2023-11-19T11:23:56;100614.44;;;13.86;81.02
68871;BME280;55906;52.278;6.808;2023-11-19T11:26:49;100624.16;;;13.87;81.70
68871;BME280;55906;52.278;6.808;2023-11-19T11:29:26;100634.72;;;13.87;81.15
68871;BME280;55906;52.278;6.808;2023-11-19T11:32:01;100625.91;;;13.85;81.73
68871;BME280;55906;52.278;6.808;2023-11-19T11:34:54;100621.47;;;13.83;81.57
68871;BME280;55906;52.278;6.808;2023-11-19T11:37:30;100626.72;;;13.80;81.98
68871;BME280;55906;52.278;6.808;2023-11-19T11:39:58;100617.88;;;13.74;82.44
68871;BME280;55906;52.278;6.808;2023-11-19T11:42:34;100619.66;;;13.78;81.52
68871;BME280;55906;52.278;6.808;2023-11-19T11:45:03;100610.81;;;13.72;81.70
68871;BME280;55906;52.278;6.808;2023-11-19T11:48:08;100619.66;;;13.77;81.67
68871;BME280;55906;52.278;6.808;2023-11-19T11:50:47;100615.28;;;13.79;81.00
68871;BME280;55906;52.278;6.808;2023-11-19T11:53:20;100614.31;;;13.72;80.98
68871;BME280;55906;52.278;6.808;2023-11-19T11:55:57;100611.72;;;13.77;81.10
68871;BME280;55906;52.278;6.808;2023-11-19T11:58:30;100594.94;;;13.72;82.76
68871;BME280;55906;52.278;6.808;2023-11-19T12:00:59;100602.78;;;13.61;84.18
68871;BME280;55906;52.278;6.808;2023-11-19T12:03:28;100599.22;;;13.58;82.96
68871;BME280;55906;52.278;6.808;2023-11-19T12:05:55;100600.97;;;13.56;83.86
68871;BME280;55906;52.278;6.808;2023-11-19T12:08:27;100593.88;;;13.53;83.24
68871;BME280;55906;52.278;6.808;2023-11-19T12:10:56;100600.88;;;13.48;83.96
68871;BME280;55906;52.278;6.808;2023-11-19T12:13:24;100588.53;;;13.45;83.17
68871;BME280;55906;52.278;6.808;2023-11-19T12:16:10;100590.34;;;13.50;83.32
68871;BME280;55906;52.278;6.808;2023-11-19T12:18:39;100586.84;;;13.52;83.45
68871;BME280;55906;52.278;6.808;2023-11-19T12:21:06;100586.09;;;13.67;81.89
68871;BME280;55906;52.278;6.808;2023-11-19T12:23:44;100579.16;;;13.83;81.70
68871;BME280;55906;52.278;6.808;2023-11-19T12:26:21;100565.97;;;13.87;81.39
68871;BME280;55906;52.278;6.808;2023-11-19T12:28:58;100563.41;;;13.98;81.79
68871;BME280;55906;52.278;6.808;2023-11-19T12:31:24;100576.63;;;13.96;80.62
68871;BME280;55906;52.278;6.808;2023-11-19T12:33:51;100561.66;;;14.01;79.56
68871;BME280;55906;52.278;6.808;2023-11-19T12:36:18;100558.16;;;14.02;79.40
68871;BME280;55906;52.278;6.808;2023-11-19T12:38:47;100566.09;;;14.05;78.31
68871;BME280;55906;52.278;6.808;2023-11-19T12:41:13;100559.97;;;14.11;78.42
68871;BME280;55906;52.278;6.808;2023-11-19T12:43:43;100559.13;;;14.20;78.24
68871;BME280;55906;52.278;6.808;2023-11-19T12:46:19;100565.44;;;14.38;76.68
68871;BME280;55906;52.278;6.808;2023-11-19T12:48:47;100554.81;;;14.31;76.57
68871;BME280;55906;52.278;6.808;2023-11-19T12:51:13;100577.81;;;14.38;76.20